Time;durP1;ratioP1;P1;durP2;ratioP2;P2;SDS_P1;SDS_P2;PMS_P1;PMS_P2;Temp;Humidity;BMP_temperature;BMP_pressure;BME280_temperature;BME280_humidity;BME280_pressure;Samples;Min_cycle;Max_cycle;Signal;HPM_P1;HPM_P2
2023/06/11 00:00:04;;;;;;;;;;;;;;;24.98;47.12;98222.25;5042158;28;20000;-90
2023/06/11 00:02:33;;;;;;;;;;;;;;;25.70;43.37;98229.31;5063579;28;20026;-89
2023/06/11 00:05:00;;;;;;;;;;;;;;;24.82;46.54;98230.66;5055164;28;19924;-90
2023/06/11 00:07:27;;;;;;;;;;;;;;;25.95;42.74;98214.59;5071308;28;19920;-89
2023/06/11 00:09:53;;;;;;;;;;;;;;;25.54;45.27;98220.91;5070225;28;19920;-89
2023/06/11 00:12:20;;;;;;;;;;;;;;;24.36;49.00;98226.00;5053755;28;19921;-89
2023/06/11 00:14:46;;;;;;;;;;;;;;;24.40;49.01;98229.53;5071455;28;20297;-90
2023/06/11 00:17:12;;;;;;;;;;;;;;;26.11;42.07;98222.22;5070906;28;19971;-90
2023/06/11 00:19:40;;;;;;;;;;;;;;;25.91;44.37;98222.31;5067785;28;19925;-91
2023/06/11 00:22:08;;;;;;;;;;;;;;;26.13;42.40;98225.38;5072457;28;19920;-89
2023/06/11 00:24:34;;;;;;;;;;;;;;;24.72;48.59;98224.00;5074272;28;19964;-91
2023/06/11 00:27:01;;;;;;;;;;;;;;;26.53;41.35;98226.63;5054976;28;19962;-89
2023/06/11 00:29:28;;;;;;;;;;;;;;;26.28;41.15;98227.34;5057906;28;19916;-89
2023/06/11 00:32:00;;;;;;;;;;;;;;;24.67;45.99;98225.31;5050612;28;20372;-89
2023/06/11 00:34:26;;;;;;;;;;;;;;;24.54;46.93;98226.44;5040452;28;20399;-89
2023/06/11 00:36:52;;;;;;;;;;;;;;;25.03;45.08;98227.34;5072329;28;19957;-89
2023/06/11 00:39:18;;;;;;;;;;;;;;;25.57;43.92;98227.66;5072495;28;20025;-89
2023/06/11 00:41:48;;;;;;;;;;;;;;;25.88;43.29;98226.03;5073572;28;19916;-89
2023/06/11 00:44:21;;;;;;;;;;;;;;;26.88;40.18;98234.06;5074518;28;19920;-88
2023/06/11 00:46:48;;;;;;;;;;;;;;;26.58;41.07;98228.91;5069972;28;19943;-89
2023/06/11 00:49:14;;;;;;;;;;;;;;;25.87;42.53;98230.88;5072825;28;19921;-89
2023/06/11 00:51:43;;;;;;;;;;;;;;;26.78;40.54;98234.38;5073224;28;19928;-89
2023/06/11 00:54:12;;;;;;;;;;;;;;;26.84;40.46;98233.34;5073374;28;19913;-89
2023/06/11 00:56:41;;;;;;;;;;;;;;;26.35;42.72;98229.97;5059453;28;20299;-89
2023/06/11 00:59:10;;;;;;;;;;;;;;;24.83;47.27;98232.25;5068207;28;19927;-90
2023/06/11 01:01:41;;;;;;;;;;;;;;;24.96;45.79;98233.94;5073447;28;19927;-90
2023/06/11 01:04:17;;;;;;;;;;;;;;;26.69;40.89;98238.63;5053452;28;19920;-89
2023/06/11 01:06:49;;;;;;;;;;;;;;;25.83;42.81;98241.44;5057543;28;19921;-91
2023/06/11 01:09:17;;;;;;;;;;;;;;;26.63;40.85;98246.03;5069164;28;19927;-89
2023/06/11 01:11:43;;;;;;;;;;;;;;;26.23;42.49;98238.38;5060712;28;20404;-90
2023/06/11 01:14:13;;;;;;;;;;;;;;;25.43;44.23;98240.03;5068161;28;19971;-88
2023/06/11 01:16:47;;;;;;;;;;;;;;;26.74;40.41;98245.72;5072650;28;19927;-89
2023/06/11 01:19:40;;;;;;;;;;;;;;;27.33;39.04;98245.09;5073659;28;20020;-88
2023/06/11 01:22:13;;;;;;;;;;;;;;;27.26;39.47;98239.69;5063687;28;19916;-88
2023/06/11 01:24:59;;;;;;;;;;;;;;;27.21;39.33;98234.63;5072240;28;19932;-88
2023/06/11 01:27:28;;;;;;;;;;;;;;;28.15;37.63;98232.63;5067878;28;19927;-89
2023/06/11 01:29:56;;;;;;;;;;;;;;;26.83;40.48;98245.09;5071647;28;20284;-88
2023/06/11 01:32:23;;;;;;;;;;;;;;;26.62;40.67;98240.84;5074290;28;19928;-88
2023/06/11 01:34:50;;;;;;;;;;;;;;;26.09;42.57;98239.53;5067570;28;19916;-88
2023/06/11 01:37:17;;;;;;;;;;;;;;;26.00;42.26;98245.00;5074962;28;19920;-87
2023/06/11 01:39:45;;;;;;;;;;;;;;;27.14;39.60;98238.44;5073082;28;20414;-88
2023/06/11 01:42:11;;;;;;;;;;;;;;;25.71;44.00;98247.00;5074339;28;19995;-89
2023/06/11 01:44:38;;;;;;;;;;;;;;;26.97;39.96;98236.19;5059433;28;20429;-89
2023/06/11 01:47:04;;;;;;;;;;;;;;;25.19;45.66;98247.03;5055297;28;19917;-89
2023/06/11 01:49:30;;;;;;;;;;;;;;;26.14;42.30;98246.69;5066438;28;20436;-89
2023/06/11 01:51:56;;;;;;;;;;;;;;;25.08;45.51;98236.06;5074567;28;19917;-89
2023/06/11 01:54:22;;;;;;;;;;;;;;;25.35;45.67;98239.41;5072585;28;19917;-91
2023/06/11 01:56:48;;;;;;;;;;;;;;;26.16;41.93;98239.38;5074118;28;19971;-89
2023/06/11 01:59:17;;;;;;;;;;;;;;;26.32;42.50;98235.69;5061995;28;19920;-90
2023/06/11 02:01:43;;;;;;;;;;;;;;;26.11;42.36;98234.28;5069287;28;19925;-90
2023/06/11 02:04:09;;;;;;;;;;;;;;;26.69;42.03;98240.63;5073410;28;19927;-89
2023/06/11 02:06:35;;;;;;;;;;;;;;;26.87;40.50;98251.38;5066713;28;20387;-89
2023/06/11 02:09:01;;;;;;;;;;;;;;;26.23;42.05;98246.81;5069506;28;19925;-89
2023/06/11 02:11:27;;;;;;;;;;;;;;;26.41;42.08;98249.91;5070260;28;19928;-89
2023/06/11 02:13:53;;;;;;;;;;;;;;;26.87;40.89;98251.38;5072959;28;19943;-89
2023/06/11 02:16:20;;;;;;;;;;;;;;;26.34;41.49;98255.75;5053876;28;20443;-88
2023/06/11 02:18:46;;;;;;;;;;;;;;;25.49;44.88;98251.56;5067805;28;19920;-89
2023/06/11 02:21:12;;;;;;;;;;;;;;;26.13;42.84;98250.72;5072525;28;19925;-88
2023/06/11 02:23:38;;;;;;;;;;;;;;;26.58;41.53;98252.22;5072237;28;19932;-90
2023/06/11 02:26:04;;;;;;;;;;;;;;;26.43;42.47;98253.88;5071012;28;20406;-89
2023/06/11 02:28:30;;;;;;;;;;;;;;;25.83;43.56;98255.50;5063099;28;19920;-90
2023/06/11 02:30:56;;;;;;;;;;;;;;;25.63;45.30;98251.19;5054767;28;19974;-89
2023/06/11 02:33:22;;;;;;;;;;;;;;;26.29;42.08;98254.28;5061507;28;19928;-90
2023/06/11 02:35:48;;;;;;;;;;;;;;;26.11;42.78;98259.59;5052721;28;20384;-89
2023/06/11 02:38:14;;;;;;;;;;;;;;;25.60;44.89;98254.91;5072356;28;20010;-90
2023/06/11 02:40:40;;;;;;;;;;;;;;;25.23;45.34;98261.78;5073234;28;19966;-92
2023/06/11 02:43:06;;;;;;;;;;;;;;;26.15;42.14;98259.50;5063668;28;19926;-89
2023/06/11 02:45:32;;;;;;;;;;;;;;;26.61;41.06;98258.97;5072610;28;19920;-89
2023/06/11 02:47:58;;;;;;;;;;;;;;;26.30;41.85;98266.34;5071221;28;20003;-90
2023/06/11 02:50:24;;;;;;;;;;;;;;;24.51;47.46;98260.97;5064453;28;19921;-89
2023/06/11 02:52:50;;;;;;;;;;;;;;;25.43;44.60;98254.09;5033157;28;19932;-89
2023/06/11 02:55:17;;;;;;;;;;;;;;;27.15;40.27;98258.97;5054080;28;20501;-88
2023/06/11 02:57:43;;;;;;;;;;;;;;;24.64;48.92;98265.50;5049404;28;19928;-90
2023/06/11 03:00:10;;;;;;;;;;;;;;;25.20;45.83;98269.09;5052630;28;19960;-90
2023/06/11 03:02:36;;;;;;;;;;;;;;;25.95;43.14;98256.81;5051777;28;20018;-88
2023/06/11 03:05:03;;;;;;;;;;;;;;;25.99;42.70;98258.28;5066126;28;20818;-89
2023/06/11 03:07:29;;;;;;;;;;;;;;;25.26;46.34;98253.28;5070432;28;19920;-89
2023/06/11 03:09:55;;;;;;;;;;;;;;;24.49;49.13;98257.81;5061664;28;19921;-89
2023/06/11 03:12:21;;;;;;;;;;;;;;;26.23;42.35;98269.34;5071159;28;19921;-88
2023/06/11 03:14:47;;;;;;;;;;;;;;;27.84;38.43;98260.72;5051134;28;19924;-88
2023/06/11 03:17:13;;;;;;;;;;;;;;;28.93;35.84;98264.44;5070672;28;19931;-88
2023/06/11 03:19:39;;;;;;;;;;;;;;;28.41;37.38;98264.38;5071551;28;19920;-89
2023/06/11 03:22:05;;;;;;;;;;;;;;;26.74;40.45;98262.63;5073066;28;19924;-89
2023/06/11 03:24:31;;;;;;;;;;;;;;;25.53;44.37;98267.13;5066786;28;19975;-89
2023/06/11 03:26:57;;;;;;;;;;;;;;;26.28;42.51;98277.25;5055054;28;19922;-89
2023/06/11 03:29:23;;;;;;;;;;;;;;;27.51;38.94;98265.09;5071317;28;20022;-88
2023/06/11 03:31:49;;;;;;;;;;;;;;;28.28;37.17;98267.28;5071466;28;19917;-88
2023/06/11 03:34:15;;;;;;;;;;;;;;;27.27;39.48;98275.09;5069562;28;19928;-89
2023/06/11 03:36:41;;;;;;;;;;;;;;;27.36;39.18;98266.75;5052664;28;20386;-88
2023/06/11 03:39:07;;;;;;;;;;;;;;;27.74;38.13;98272.38;5064738;28;20033;-88
2023/06/11 03:41:33;;;;;;;;;;;;;;;28.08;37.30;98266.78;5054942;28;20390;-88
2023/06/11 03:43:59;;;;;;;;;;;;;;;27.68;38.43;98266.50;5058465;28;19962;-88
2023/06/11 03:46:26;;;;;;;;;;;;;;;27.39;39.39;98266.69;5072937;28;20360;-89
2023/06/11 03:48:52;;;;;;;;;;;;;;;28.03;37.43;98265.31;5072899;28;20498;-88
2023/06/11 03:51:18;;;;;;;;;;;;;;;26.97;40.11;98270.00;5072914;28;20372;-88
2023/06/11 03:53:44;;;;;;;;;;;;;;;26.61;40.73;98279.47;5072929;28;19929;-88
2023/06/11 03:56:10;;;;;;;;;;;;;;;25.73;43.41;98281.88;5072188;28;20015;-90
2023/06/11 03:58:39;;;;;;;;;;;;;;;27.02;40.56;98283.53;5075263;28;19998;-89
2023/06/11 04:01:05;;;;;;;;;;;;;;;27.84;39.29;98274.06;5071655;28;19916;-88
2023/06/11 04:03:31;;;;;;;;;;;;;;;26.69;40.97;98286.50;5052720;28;20015;-89
2023/06/11 04:05:57;;;;;;;;;;;;;;;26.66;40.93;98290.22;5059866;28;19932;-89
2023/06/11 04:08:24;;;;;;;;;;;;;;;26.33;41.51;98288.75;5072298;28;19923;-88
2023/06/11 04:10:58;;;;;;;;;;;;;;;26.74;40.84;98294.41;5074814;28;19920;-88
2023/06/11 04:13:27;;;;;;;;;;;;;;;25.82;43.15;98293.28;5057237;28;19916;-89
2023/06/11 04:15:53;;;;;;;;;;;;;;;26.32;43.01;98292.00;5055920;28;20307;-89
2023/06/11 04:18:19;;;;;;;;;;;;;;;26.15;43.17;98293.28;5072739;28;19921;-89
2023/06/11 04:20:45;;;;;;;;;;;;;;;26.09;43.00;98295.81;5057573;28;20065;-88
2023/06/11 04:23:14;;;;;;;;;;;;;;;26.38;43.21;98299.47;5073203;28;20474;-89
2023/06/11 04:25:41;;;;;;;;;;;;;;;26.33;41.79;98290.75;5074700;28;19931;-88
2023/06/11 04:28:08;;;;;;;;;;;;;;;25.68;43.43;98299.28;5075500;28;19950;-89
2023/06/11 04:30:34;;;;;;;;;;;;;;;25.71;43.25;98303.25;5074157;28;19920;-91
2023/06/11 04:33:03;;;;;;;;;;;;;;;27.38;39.02;98303.78;5073148;28;19920;-89
2023/06/11 04:35:29;;;;;;;;;;;;;;;25.99;43.92;98305.31;5060595;28;19975;-89
2023/06/11 04:37:58;;;;;;;;;;;;;;;25.95;42.47;98299.78;5075915;28;19920;-91
2023/06/11 04:40:24;;;;;;;;;;;;;;;26.44;41.39;98308.94;5055929;28;19929;-89
2023/06/11 04:42:50;;;;;;;;;;;;;;;27.81;38.11;98314.47;5068975;28;19924;-89
2023/06/11 04:45:18;;;;;;;;;;;;;;;25.85;44.79;98311.31;5055149;28;20433;-88
2023/06/11 04:47:45;;;;;;;;;;;;;;;24.93;47.15;98310.63;5049724;28;19966;-90
2023/06/11 04:50:12;;;;;;;;;;;;;;;24.54;47.71;98314.25;5064679;28;19928;-89
2023/06/11 04:52:38;;;;;;;;;;;;;;;26.29;42.22;98318.22;5065117;28;19924;-90
2023/06/11 04:55:05;;;;;;;;;;;;;;;25.98;43.15;98318.59;5072953;28;19921;-90
2023/06/11 04:57:34;;;;;;;;;;;;;;;26.33;42.63;98324.53;5047548;28;20401;-90
2023/06/11 05:00:01;;;;;;;;;;;;;;;26.33;42.01;98313.28;5049448;28;19927;-90
2023/06/11 05:02:28;;;;;;;;;;;;;;;26.01;42.10;98316.94;5071109;28;19936;-90
2023/06/11 05:04:54;;;;;;;;;;;;;;;26.03;42.96;98309.63;5052681;28;19920;-90
2023/06/11 05:07:20;;;;;;;;;;;;;;;27.71;38.56;98312.78;5073721;28;19920;-90
2023/06/11 05:09:46;;;;;;;;;;;;;;;25.46;46.94;98317.13;5074455;28;19920;-90
2023/06/11 05:12:12;;;;;;;;;;;;;;;26.62;42.69;98326.16;5073490;28;20532;-90
2023/06/11 05:14:39;;;;;;;;;;;;;;;28.17;38.19;98314.84;5074562;28;19921;-90
2023/06/11 05:17:05;;;;;;;;;;;;;;;27.41;40.49;98314.16;5072957;28;19956;-89
2023/06/11 05:19:31;;;;;;;;;;;;;;;27.16;40.05;98323.38;5073941;28;19974;-90
2023/06/11 05:21:57;;;;;;;;;;;;;;;27.48;39.43;98316.75;5069202;28;20398;-91
2023/06/11 05:24:28;;;;;;;;;;;;;;;26.68;42.84;98320.72;5051061;28;19925;-91
2023/06/11 05:26:55;;;;;;;;;;;;;;;26.21;41.73;98319.66;5068935;28;20430;-89
2023/06/11 05:29:22;;;;;;;;;;;;;;;26.12;42.35;98317.47;5074617;28;19927;-90
2023/06/11 05:31:48;;;;;;;;;;;;;;;26.60;41.19;98320.16;5051327;28;20031;-90
2023/06/11 05:34:14;;;;;;;;;;;;;;;26.29;42.17;98321.03;5074808;28;19971;-90
2023/06/11 05:36:42;;;;;;;;;;;;;;;26.24;42.69;98325.19;5056469;28;19924;-91
2023/06/11 05:39:08;;;;;;;;;;;;;;;25.21;44.40;98317.66;5074389;28;19921;-91
2023/06/11 05:41:34;;;;;;;;;;;;;;;26.56;41.16;98321.47;5072130;28;19920;-90
2023/06/11 05:44:00;;;;;;;;;;;;;;;27.69;38.45;98327.34;5066826;28;19928;-90
2023/06/11 05:46:26;;;;;;;;;;;;;;;27.03;39.37;98327.38;5073888;28;19931;-88
2023/06/11 05:48:55;;;;;;;;;;;;;;;26.61;41.06;98333.00;5056178;28;19916;-90
2023/06/11 05:51:21;;;;;;;;;;;;;;;25.29;46.03;98328.31;5072547;28;19955;-90
2023/06/11 05:53:47;;;;;;;;;;;;;;;25.77;42.97;98335.22;5074336;28;19916;-90
2023/06/11 05:56:13;;;;;;;;;;;;;;;26.54;40.15;98341.66;5073229;28;20065;-91
2023/06/11 05:58:40;;;;;;;;;;;;;;;27.58;39.17;98343.03;5072264;28;19916;-91
2023/06/11 06:01:06;;;;;;;;;;;;;;;25.89;42.17;98349.38;5069060;28;20287;-91
2023/06/11 06:03:33;;;;;;;;;;;;;;;24.61;48.03;98345.00;5073019;28;19921;-88
2023/06/11 06:06:00;;;;;;;;;;;;;;;25.94;43.31;98342.44;5073884;28;20368;-90
2023/06/11 06:08:26;;;;;;;;;;;;;;;26.74;41.62;98352.78;5056069;28;19916;-89
2023/06/11 06:10:53;;;;;;;;;;;;;;;26.00;44.55;98351.91;5072322;28;19954;-90
2023/06/11 06:13:19;;;;;;;;;;;;;;;25.05;45.10;98360.56;5064901;28;20084;-90
2023/06/11 06:15:45;;;;;;;;;;;;;;;26.23;42.04;98351.78;5067486;28;19928;-90
2023/06/11 06:18:11;;;;;;;;;;;;;;;26.03;42.27;98351.84;5069638;28;20311;-89
2023/06/11 06:20:37;;;;;;;;;;;;;;;26.82;42.06;98359.00;5068843;28;19928;-90
2023/06/11 06:23:04;;;;;;;;;;;;;;;26.60;40.50;98370.88;5065307;28;19985;-90
2023/06/11 06:25:31;;;;;;;;;;;;;;;26.62;40.71;98367.59;5072087;28;19924;-89
2023/06/11 06:27:57;;;;;;;;;;;;;;;25.52;45.32;98369.56;5066805;28;20005;-88
2023/06/11 06:30:23;;;;;;;;;;;;;;;25.20;46.07;98363.84;5067799;28;19970;-89
2023/06/11 06:32:49;;;;;;;;;;;;;;;25.79;42.44;98369.34;5064355;28;19956;-91
2023/06/11 06:35:15;;;;;;;;;;;;;;;26.04;42.12;98369.50;5063132;28;19935;-91
2023/06/11 06:37:41;;;;;;;;;;;;;;;26.54;40.04;98377.47;5068740;28;19927;-90
2023/06/11 06:40:08;;;;;;;;;;;;;;;26.18;42.47;98374.81;5061452;28;19920;-89
2023/06/11 06:42:34;;;;;;;;;;;;;;;24.66;46.45;98378.19;5060007;28;19920;-88
2023/06/11 06:45:00;;;;;;;;;;;;;;;24.92;45.50;98382.09;5068664;28;19928;-89
2023/06/11 06:47:26;;;;;;;;;;;;;;;26.16;41.30;98382.13;5070248;28;20392;-91
2023/06/11 06:49:52;;;;;;;;;;;;;;;25.59;43.81;98377.03;5034689;28;19924;-90
2023/06/11 06:52:18;;;;;;;;;;;;;;;25.52;41.00;98382.84;5070980;28;19927;-91
2023/06/11 06:54:44;;;;;;;;;;;;;;;25.01;44.52;98387.13;5053573;28;19921;-90
2023/06/11 06:57:10;;;;;;;;;;;;;;;24.93;44.00;98385.69;5065574;28;19985;-89
2023/06/11 06:59:36;;;;;;;;;;;;;;;25.76;41.09;98393.50;5068389;28;19927;-90
2023/06/11 07:02:02;;;;;;;;;;;;;;;24.73;45.34;98389.28;5069870;28;19995;-92
2023/06/11 07:04:28;;;;;;;;;;;;;;;24.71;46.76;98399.34;5067469;28;20272;-92
2023/06/11 07:06:55;;;;;;;;;;;;;;;25.87;42.84;98396.06;5068164;28;19957;-90
2023/06/11 07:09:21;;;;;;;;;;;;;;;25.87;41.62;98401.69;5068439;28;19917;-89
2023/06/11 07:11:48;;;;;;;;;;;;;;;26.30;42.16;98396.59;5064404;28;19927;-92
2023/06/11 07:14:14;;;;;;;;;;;;;;;25.72;42.23;98389.97;5066849;28;19916;-84
2023/06/11 07:16:40;;;;;;;;;;;;;;;26.47;40.15;98400.19;5059589;28;19935;-84
2023/06/11 07:19:06;;;;;;;;;;;;;;;27.37;37.92;98407.34;5061342;28;19929;-87
2023/06/11 07:21:35;;;;;;;;;;;;;;;27.00;38.60;98405.16;5066472;28;19921;-88
2023/06/11 07:24:04;;;;;;;;;;;;;;;28.02;37.39;98396.44;5070248;28;19920;-87
2023/06/11 07:26:30;;;;;;;;;;;;;;;28.54;36.12;98395.09;5046883;28;19929;-89
2023/06/11 07:28:56;;;;;;;;;;;;;;;28.50;36.29;98392.38;5068061;28;20050;-88
2023/06/11 07:31:22;;;;;;;;;;;;;;;27.17;41.09;98401.03;5074033;28;19960;-91
2023/06/11 07:33:49;;;;;;;;;;;;;;;27.84;37.13;98407.47;5062521;28;19921;-90
2023/06/11 07:36:15;;;;;;;;;;;;;;;28.42;37.46;98404.38;5073406;28;20452;-88
2023/06/11 07:38:43;;;;;;;;;;;;;;;25.60;42.46;98409.56;5074045;28;19928;-89
2023/06/11 07:41:10;;;;;;;;;;;;;;;26.36;39.82;98406.09;5067941;28;19923;-88
2023/06/11 07:43:36;;;;;;;;;;;;;;;26.60;38.98;98410.31;5068699;28;19999;-88
2023/06/11 07:46:03;;;;;;;;;;;;;;;26.64;39.86;98404.56;5075883;28;20014;-88
2023/06/11 07:48:30;;;;;;;;;;;;;;;26.89;38.95;98409.53;5071295;28;19920;-89
2023/06/11 07:50:56;;;;;;;;;;;;;;;26.78;39.46;98409.03;5063155;28;19970;-90
2023/06/11 07:53:23;;;;;;;;;;;;;;;26.51;41.47;98410.13;5068136;28;19982;-89
2023/06/11 07:55:55;;;;;;;;;;;;;;;26.59;41.62;98405.88;5068733;28;19938;-91
2023/06/11 07:58:21;;;;;;;;;;;;;;;28.74;37.54;98409.72;5063149;28;19921;-90
2023/06/11 08:04:12;;;;;;;;;;;;;;;30.32;33.22;98399.91;5074578;28;19926;-90
2023/06/11 08:06:39;;;;;;;;;;;;;;;30.39;32.76;98405.31;5070645;28;19924;-91
2023/06/11 08:09:05;;;;;;;;;;;;;;;28.24;37.13;98412.66;5061483;28;19920;-92
2023/06/11 08:11:31;;;;;;;;;;;;;;;27.80;38.21;98412.44;5073863;28;19926;-90
2023/06/11 08:13:57;;;;;;;;;;;;;;;28.21;37.60;98408.72;5074390;28;20018;-91
2023/06/11 08:16:23;;;;;;;;;;;;;;;27.99;36.82;98414.28;5074382;28;20038;-91
2023/06/11 08:18:49;;;;;;;;;;;;;;;28.18;36.01;98409.63;5037783;28;19959;-86
2023/06/11 08:21:16;;;;;;;;;;;;;;;28.00;36.25;98403.78;5075114;28;20498;-88
2023/06/11 08:23:42;;;;;;;;;;;;;;;27.99;36.31;98416.28;5075435;28;20269;-90
2023/06/11 08:26:09;;;;;;;;;;;;;;;28.53;36.04;98413.25;5067826;28;19920;-88
2023/06/11 08:28:38;;;;;;;;;;;;;;;27.66;39.94;98418.53;5072287;28;19924;-92
2023/06/11 08:31:05;;;;;;;;;;;;;;;27.97;38.30;98422.38;5070791;28;19925;-92
2023/06/11 08:33:33;;;;;;;;;;;;;;;28.44;38.23;98413.19;5072752;28;19924;-91
2023/06/11 08:35:59;;;;;;;;;;;;;;;28.40;39.92;98409.69;5070130;28;20276;-89
2023/06/11 08:38:28;;;;;;;;;;;;;;;28.61;34.81;98404.09;5070573;28;19927;-91
2023/06/11 08:40:54;;;;;;;;;;;;;;;27.68;39.09;98421.69;5063142;28;19966;-93
2023/06/11 08:43:20;;;;;;;;;;;;;;;28.25;35.94;98409.38;5075709;28;20395;-91
2023/06/11 08:45:46;;;;;;;;;;;;;;;27.87;39.49;98420.69;5075669;28;20356;-92
2023/06/11 08:48:12;;;;;;;;;;;;;;;28.29;38.09;98415.69;5071551;28;19920;-92
2023/06/11 08:50:38;;;;;;;;;;;;;;;28.59;36.35;98405.84;5057907;28;20388;-90
2023/06/11 08:53:07;;;;;;;;;;;;;;;29.26;34.97;98411.88;5075999;28;19917;-91
2023/06/11 08:55:51;;;;;;;;;;;;;;;29.61;34.11;98401.22;5075733;28;19973;-91
2023/06/11 08:58:20;;;;;;;;;;;;;;;28.91;36.96;98404.69;5057702;28;19920;-92
2023/06/11 09:00:46;;;;;;;;;;;;;;;27.56;40.90;98407.59;5075403;28;19920;-92
2023/06/11 09:03:12;;;;;;;;;;;;;;;27.26;41.02;98408.84;5075838;28;19952;-92
2023/06/11 09:05:46;;;;;;;;;;;;;;;28.18;39.46;98408.81;5076339;28;19934;-92
2023/06/11 09:08:14;;;;;;;;;;;;;;;29.39;37.48;98402.06;5076847;28;19920;-91
2023/06/11 09:10:47;;;;;;;;;;;;;;;30.40;31.44;98392.75;5075262;28;19920;-91
2023/06/11 09:13:13;;;;;;;;;;;;;;;31.01;35.52;98394.53;5075170;28;19946;-93
2023/06/11 09:15:49;;;;;;;;;;;;;;;29.40;37.56;98408.50;5072208;28;19916;-91
2023/06/11 09:18:27;;;;;;;;;;;;;;;29.90;36.54;98399.66;5075125;28;19978;-90
2023/06/11 09:20:54;;;;;;;;;;;;;;;29.37;37.14;98403.75;5057591;28;19925;-90
2023/06/11 09:23:26;;;;;;;;;;;;;;;28.22;39.60;98398.19;5073778;28;19917;-91
2023/06/11 09:25:53;;;;;;;;;;;;;;;28.15;39.79;98399.22;5075477;28;19946;-88
2023/06/11 09:28:19;;;;;;;;;;;;;;;27.74;40.70;98396.53;5075105;28;20016;-92
2023/06/11 09:30:55;;;;;;;;;;;;;;;27.40;40.04;98400.78;5057126;28;19948;-91
2023/06/11 09:33:21;;;;;;;;;;;;;;;28.59;36.88;98403.00;5057127;28;19959;-90
2023/06/11 09:35:47;;;;;;;;;;;;;;;28.44;37.29;98401.88;5075198;28;19917;-93
2023/06/11 09:38:17;;;;;;;;;;;;;;;27.58;40.23;98402.28;5072782;28;20019;-94
2023/06/11 09:40:47;;;;;;;;;;;;;;;27.60;40.66;98399.78;5056160;28;19964;-91
2023/06/11 09:43:17;;;;;;;;;;;;;;;28.84;34.29;98400.06;5039573;28;20284;-90
2023/06/11 09:45:43;;;;;;;;;;;;;;;30.14;32.60;98402.72;5039104;28;19925;-89
2023/06/11 09:48:10;;;;;;;;;;;;;;;29.55;33.86;98408.72;5074962;28;19925;-90
2023/06/11 09:50:37;;;;;;;;;;;;;;;28.56;39.07;98407.50;5074674;28;19924;-91
2023/06/11 09:53:04;;;;;;;;;;;;;;;28.51;33.74;98402.44;5074840;28;20011;-90
2023/06/11 09:55:37;;;;;;;;;;;;;;;29.52;33.59;98401.19;5074922;28;20073;-90
2023/06/11 09:58:03;;;;;;;;;;;;;;;28.12;38.50;98402.19;5055777;28;19920;-88
2023/06/11 10:00:30;;;;;;;;;;;;;;;27.71;37.12;98398.22;5075296;28;20332;-90
2023/06/11 10:02:57;;;;;;;;;;;;;;;29.28;37.96;98396.03;5074557;28;19943;-91
2023/06/11 10:05:23;;;;;;;;;;;;;;;30.36;32.48;98403.44;5074352;28;19917;-88
2023/06/11 10:08:08;;;;;;;;;;;;;;;28.87;35.67;98392.72;5074987;28;20441;-88
2023/06/11 10:10:38;;;;;;;;;;;;;;;29.18;34.85;98402.06;5074127;28;19920;-92
2023/06/11 10:13:04;;;;;;;;;;;;;;;29.31;36.49;98405.63;5074122;28;19928;-90
2023/06/11 10:15:31;;;;;;;;;;;;;;;29.73;34.81;98401.13;5074291;28;19923;-90
2023/06/11 10:17:58;;;;;;;;;;;;;;;31.17;33.14;98408.38;5074187;28;19921;-89
2023/06/11 10:20:27;;;;;;;;;;;;;;;30.70;35.36;98405.19;5073913;28;19960;-91
2023/06/11 10:23:06;;;;;;;;;;;;;;;31.15;34.06;98408.06;5060377;28;19920;-92
2023/06/11 10:25:33;;;;;;;;;;;;;;;31.17;31.53;98407.56;5040344;28;19928;-91
2023/06/11 10:27:59;;;;;;;;;;;;;;;30.86;31.92;98396.38;5073694;28;19960;-91
2023/06/11 10:30:25;;;;;;;;;;;;;;;29.93;35.95;98410.06;5067644;28;19916;-91
2023/06/11 10:32:53;;;;;;;;;;;;;;;28.97;38.14;98414.13;5071374;28;20392;-90
2023/06/11 10:35:28;;;;;;;;;;;;;;;28.98;36.66;98412.91;5057610;28;19956;-90
2023/06/11 10:38:02;;;;;;;;;;;;;;;30.52;35.23;98408.03;5074487;28;19920;-91
2023/06/11 10:40:32;;;;;;;;;;;;;;;31.59;31.81;98404.84;5074539;28;19924;-89
2023/06/11 10:42:58;;;;;;;;;;;;;;;30.11;36.68;98403.66;5073781;28;19999;-90
2023/06/11 10:45:32;;;;;;;;;;;;;;;30.00;34.29;98397.63;5073818;28;20023;-90
2023/06/11 10:47:59;;;;;;;;;;;;;;;30.94;33.36;98400.50;5054949;28;19924;-91
2023/06/11 10:50:30;;;;;;;;;;;;;;;30.09;31.77;98406.94;5055718;28;19953;-90
2023/06/11 10:52:58;;;;;;;;;;;;;;;29.78;34.15;98411.84;5059482;28;19913;-90
2023/06/11 10:55:26;;;;;;;;;;;;;;;28.61;39.19;98409.00;5055432;28;19924;-90
2023/06/11 10:57:52;;;;;;;;;;;;;;;29.65;37.56;98399.03;5073951;28;20019;-91
2023/06/11 11:00:18;;;;;;;;;;;;;;;29.96;33.23;98397.78;5073592;28;19993;-89
2023/06/11 11:02:48;;;;;;;;;;;;;;;30.56;31.63;98392.44;5055184;28;20018;-90
2023/06/11 11:05:14;;;;;;;;;;;;;;;28.63;37.05;98395.97;5071518;28;19927;-90
2023/06/11 11:07:44;;;;;;;;;;;;;;;28.65;36.73;98387.03;5073712;28;19920;-90
2023/06/11 11:10:11;;;;;;;;;;;;;;;29.24;31.71;98406.66;5073668;28;19929;-89
2023/06/11 11:12:42;;;;;;;;;;;;;;;30.05;30.92;98392.16;5066505;28;19970;-92
2023/06/11 11:15:10;;;;;;;;;;;;;;;30.45;32.67;98380.78;5057949;28;20019;-87
2023/06/11 11:17:37;;;;;;;;;;;;;;;31.50;31.09;98387.84;5069807;28;19920;-90
2023/06/11 11:20:10;;;;;;;;;;;;;;;31.73;31.62;98387.91;5072671;28;19925;-90
2023/06/11 11:22:36;;;;;;;;;;;;;;;32.09;28.46;98378.47;5070374;28;19939;-88
2023/06/11 11:25:04;;;;;;;;;;;;;;;31.81;31.02;98388.34;5073162;28;19920;-92
2023/06/11 11:27:30;;;;;;;;;;;;;;;30.72;33.82;98389.28;5068825;28;19916;-88
2023/06/11 11:29:58;;;;;;;;;;;;;;;30.24;31.73;98369.53;5066967;28;20019;-89
2023/06/11 11:32:26;;;;;;;;;;;;;;;29.97;31.72;98379.53;5053320;28;19958;-89
2023/06/11 11:34:53;;;;;;;;;;;;;;;29.90;34.07;98387.53;5054314;28;20284;-91
2023/06/11 11:37:21;;;;;;;;;;;;;;;31.10;30.54;98368.97;5072491;28;19916;-88
2023/06/11 11:39:48;;;;;;;;;;;;;;;30.86;34.01;98372.91;5070531;28;19938;-88
2023/06/11 11:42:15;;;;;;;;;;;;;;;30.34;32.17;98371.94;5072220;28;19989;-89
2023/06/11 11:44:42;;;;;;;;;;;;;;;30.09;30.92;98370.13;5070647;28;19928;-91
2023/06/11 11:47:11;;;;;;;;;;;;;;;30.38;29.71;98364.09;5066981;28;19930;-90
2023/06/11 11:49:37;;;;;;;;;;;;;;;29.54;33.19;98368.34;5062008;28;19973;-92
2023/06/11 11:52:07;;;;;;;;;;;;;;;31.34;32.31;98372.69;5059072;28;19928;-91
2023/06/11 11:54:33;;;;;;;;;;;;;;;31.99;30.15;98369.22;5069136;28;20407;-91
2023/06/11 11:57:07;;;;;;;;;;;;;;;30.85;30.00;98377.00;5061506;28;20356;-92
2023/06/11 11:59:37;;;;;;;;;;;;;;;30.31;33.74;98381.38;5068275;28;19924;-92
2023/06/11 12:02:04;;;;;;;;;;;;;;;31.53;27.04;98376.28;5071444;28;19963;-87
2023/06/11 12:04:42;;;;;;;;;;;;;;;31.36;28.82;98372.22;5048193;28;19924;-90
2023/06/11 12:07:17;;;;;;;;;;;;;;;32.16;28.68;98369.56;5054722;28;19916;-90
2023/06/11 12:09:43;;;;;;;;;;;;;;;32.16;28.65;98369.56;5072082;28;19924;-88
2023/06/11 12:12:10;;;;;;;;;;;;;;;32.29;28.95;98372.97;5070115;28;19999;-91
2023/06/11 12:14:36;;;;;;;;;;;;;;;32.83;30.13;98357.56;5067402;28;19942;-91
2023/06/11 12:17:09;;;;;;;;;;;;;;;32.05;27.61;98360.78;5075205;28;19921;-91
2023/06/11 12:19:38;;;;;;;;;;;;;;;30.93;32.78;98366.94;5073720;28;19921;-90
2023/06/11 12:22:10;;;;;;;;;;;;;;;29.66;34.67;98361.00;5070036;28;19921;-89
2023/06/11 12:24:36;;;;;;;;;;;;;;;29.89;34.17;98364.13;5047328;28;19932;-89
2023/06/11 12:27:03;;;;;;;;;;;;;;;30.69;33.58;98346.94;5031249;28;19933;-88
2023/06/11 12:29:29;;;;;;;;;;;;;;;30.91;32.86;98349.63;5071588;28;19970;-89
2023/06/11 12:31:55;;;;;;;;;;;;;;;30.31;34.70;98349.41;5070315;28;20290;-90
2023/06/11 12:34:24;;;;;;;;;;;;;;;30.59;34.92;98339.69;5066212;28;19928;-89
2023/06/11 12:37:03;;;;;;;;;;;;;;;30.95;32.52;98348.19;5069534;28;19927;-88
2023/06/11 12:39:29;;;;;;;;;;;;;;;31.58;32.13;98333.06;5070038;28;19931;-91
2023/06/11 12:41:55;;;;;;;;;;;;;;;31.50;30.95;98340.38;5061485;28;20434;-89
2023/06/11 12:44:21;;;;;;;;;;;;;;;31.64;30.92;98339.69;5071966;28;20011;-91
2023/06/11 12:46:48;;;;;;;;;;;;;;;32.27;28.83;98349.13;5070060;28;20007;-91
2023/06/11 12:49:14;;;;;;;;;;;;;;;32.24;33.18;98338.72;5070849;28;20022;-92
2023/06/11 12:51:43;;;;;;;;;;;;;;;30.61;34.78;98342.84;5068467;28;20388;-90